Time;durP1;ratioP1;P1;durP2;ratioP2;P2;SDS_P1;SDS_P2;PMS_P1;PMS_P2;Temp;Humidity;BMP_temperature;BMP_pressure;BME280_temperature;BME280_humidity;BME280_pressure;Samples;Min_cycle;Max_cycle;Signal;HPM_P1;HPM_P2
2022/04/19 00:01:11;;;;;;;14.13;9.65;;;14.10;48.80;;;;;;5015687;28;20041;-82
2022/04/19 00:03:37;;;;;;;12.93;9.05;;;14.20;48.70;;;;;;5015914;28;20037;-82
2022/04/19 00:06:04;;;;;;;15.40;9.68;;;14.00;48.90;;;;;;5029775;28;20060;-82
2022/04/19 00:08:30;;;;;;;14.65;8.57;;;14.00;48.50;;;;;;5032421;28;20025;-83
2022/04/19 00:10:55;;;;;;;13.18;9.07;;;13.60;49.50;;;;;;5015565;28;20021;-82
2022/04/19 00:13:21;;;;;;;12.63;8.68;;;13.40;49.80;;;;;;5015987;28;20442;-82
2022/04/19 00:15:47;;;;;;;13.77;9.30;;;13.50;49.80;;;;;;5016075;28;20376;-82
2022/04/19 00:18:14;;;;;;;14.18;8.80;;;13.80;49.20;;;;;;5030285;28;20079;-82
2022/04/19 00:20:42;;;;;;;11.50;8.55;;;13.60;49.40;;;;;;5052753;28;20036;-82
2022/04/19 00:23:15;;;;;;;13.05;8.85;;;13.40;49.60;;;;;;5035298;28;20041;-82
2022/04/19 00:25:48;;;;;;;14.35;9.45;;;13.00;50.50;;;;;;5035512;28;20025;-82
2022/04/19 00:28:15;;;;;;;11.10;8.27;;;12.50;51.40;;;;;;5035458;28;20029;-82
2022/04/19 00:30:41;;;;;;;13.30;8.38;;;12.30;51.60;;;;;;5035400;28;20032;-82
2022/04/19 00:33:08;;;;;;;12.88;8.95;;;12.40;51.70;;;;;;5025819;28;20540;-82
2022/04/19 00:35:35;;;;;;;11.52;8.15;;;12.60;51.10;;;;;;5015985;28;20037;-82
2022/04/19 00:38:01;;;;;;;12.65;8.38;;;12.80;50.80;;;;;;5015584;28;20018;-82
2022/04/19 00:40:27;;;;;;;11.88;8.43;;;12.80;50.50;;;;;;5018240;28;20040;-82
2022/04/19 00:42:56;;;;;;;12.52;8.13;;;12.80;50.50;;;;;;5019141;28;20124;-82
2022/04/19 00:45:23;;;;;;;12.32;8.05;;;12.60;50.80;;;;;;5019494;28;20064;-81
2022/04/19 00:47:52;;;;;;;10.98;7.78;;;12.50;50.90;;;;;;5034523;28;20025;-81
2022/04/19 00:50:19;;;;;;;11.75;7.72;;;12.40;51.50;;;;;;5024194;28;20025;-81
2022/04/19 00:52:45;;;;;;;9.98;7.20;;;12.40;51.40;;;;;;5039235;28;20021;-81
2022/04/19 00:55:11;;;;;;;11.73;7.43;;;12.40;51.60;;;;;;5009918;28;20040;-82
2022/04/19 00:57:42;;;;;;;9.50;6.82;;;12.50;51.60;;;;;;5057144;28;20025;-82
2022/04/19 01:00:12;;;;;;;10.50;7.43;;;12.80;51.10;;;;;;5038043;28;20029;-81
2022/04/19 01:02:38;;;;;;;10.68;7.50;;;13.00;50.70;;;;;;5030499;28;20029;-82
2022/04/19 01:05:14;;;;;;;9.50;6.47;;;12.90;50.70;;;;;;5019497;28;20030;-82
2022/04/19 01:07:42;;;;;;;10.68;6.75;;;12.90;50.80;;;;;;4997329;28;20046;-82
2022/04/19 01:10:08;;;;;;;11.55;7.32;;;12.80;50.80;;;;;;4995856;28;20424;-82
2022/04/19 01:15:22;;;;;;;11.35;6.90;;;12.50;50.90;;;;;;5009550;28;20053;-81
2022/04/19 01:17:48;;;;;;;10.75;6.93;;;12.40;51.40;;;;;;5015935;28;20397;-82
2022/04/19 01:20:14;;;;;;;9.65;7.20;;;12.80;51.10;;;;;;5014680;28;20045;-81
2022/04/19 01:22:40;;;;;;;9.18;6.70;;;13.00;50.50;;;;;;5014925;28;20065;-82
2022/04/19 01:25:08;;;;;;;12.60;6.75;;;13.10;50.40;;;;;;5015425;28;20091;-82
2022/04/19 01:27:34;;;;;;;9.85;6.55;;;13.30;49.90;;;;;;5015428;28;20026;-83
2022/04/19 01:30:04;;;;;;;9.95;6.28;;;13.40;49.50;;;;;;5005555;28;20033;-82
2022/04/19 01:32:30;;;;;;;;;;;13.50;48.90;;;;;;5015698;28;20030;-82
2022/04/19 01:35:10;;;;;;;10.88;7.15;;;13.70;49.00;;;;;;5014905;28;19951;-82
2022/04/19 01:37:38;;;;;;;11.65;7.00;;;13.80;48.40;;;;;;5015156;28;20099;-82
2022/04/19 01:40:17;;;;;;;9.68;6.85;;;13.80;48.70;;;;;;5013694;28;20408;-82
2022/04/19 01:42:50;;;;;;;10.48;6.50;;;13.90;48.50;;;;;;4995418;28;20061;-82
2022/04/19 01:45:22;;;;;;;10.18;7.35;;;13.70;48.30;;;;;;4995521;28;20026;-82
2022/04/19 01:47:48;;;;;;;8.85;6.18;;;13.50;48.80;;;;;;4996709;28;20026;-80
2022/04/19 01:50:15;;;;;;;11.02;6.95;;;13.40;49.30;;;;;;4995035;28;20026;-82
2022/04/19 01:52:42;;;;;;;11.68;7.10;;;13.30;49.40;;;;;;4996378;28;20033;-82
2022/04/19 01:55:13;;;;;;;10.35;6.60;;;13.20;49.50;;;;;;4995320;28;20089;-82
2022/04/19 01:57:41;;;;;;;9.35;6.57;;;13.10;49.50;;;;;;4995262;28;20089;-82
2022/04/19 02:00:07;;;;;;;9.30;6.43;;;13.10;49.80;;;;;;4994996;28;20027;-82
2022/04/19 02:02:33;;;;;;;10.75;7.25;;;13.00;49.90;;;;;;4995827;28;20592;-82
2022/04/19 02:04:58;;;;;;;10.27;6.97;;;13.00;50.00;;;;;;4996242;28;20034;-82
2022/04/19 02:07:24;;;;;;;11.48;7.20;;;12.90;50.00;;;;;;5018117;28;20129;-82
2022/04/19 02:09:50;;;;;;;10.00;7.07;;;12.90;50.00;;;;;;5014381;28;20053;-82
2022/04/19 02:12:15;;;;;;;9.40;7.00;;;12.70;50.40;;;;;;5018540;28;20086;-81
2022/04/19 02:14:42;;;;;;;10.70;7.00;;;12.50;51.00;;;;;;5033868;28;20495;-82
2022/04/19 02:17:09;;;;;;;10.40;7.40;;;12.50;51.20;;;;;;5034258;28;20021;-82
2022/04/19 02:19:35;;;;;;;10.80;6.95;;;12.80;51.00;;;;;;5034286;28;20484;-82
2022/04/19 02:22:03;;;;;;;12.13;7.32;;;12.90;50.90;;;;;;5033401;28;20021;-82
2022/04/19 02:24:29;;;;;;;11.45;8.07;;;13.20;50.60;;;;;;5034154;28;20038;-82
2022/04/19 02:26:55;;;;;;;11.82;7.78;;;13.40;50.50;;;;;;5034974;28;20396;-82
2022/04/19 02:29:23;;;;;;;10.90;7.68;;;13.60;50.20;;;;;;5034386;28;20056;-82
2022/04/19 02:31:49;;;;;;;11.68;8.10;;;13.50;50.00;;;;;;5030473;28;20021;-81
2022/04/19 02:34:15;;;;;;;15.40;8.70;;;13.10;51.20;;;;;;5015502;28;20398;-81
2022/04/19 02:36:40;;;;;;;11.32;7.95;;;13.10;50.80;;;;;;5033823;28;20056;-82
2022/04/19 02:39:06;;;;;;;11.50;7.55;;;13.10;50.70;;;;;;5033585;28;20025;-81
2022/04/19 02:41:32;;;;;;;14.15;8.02;;;12.90;51.20;;;;;;5033670;28;20026;-81
2022/04/19 02:43:59;;;;;;;13.02;8.35;;;12.60;51.70;;;;;;5033459;28;20037;-81
2022/04/19 02:46:24;;;;;;;10.70;7.22;;;12.30;52.60;;;;;;5033559;28;20431;-81
2022/04/19 02:48:50;;;;;;;11.25;7.35;;;11.90;53.40;;;;;;5032974;28;20030;-81
2022/04/19 02:51:16;;;;;;;12.25;7.88;;;11.70;53.90;;;;;;5033822;28;20029;-81
2022/04/19 02:53:43;;;;;;;10.40;7.30;;;11.50;54.40;;;;;;5034692;28;20025;-81
2022/04/19 02:56:08;;;;;;;11.82;7.40;;;11.50;54.30;;;;;;5033221;28;20022;-82
2022/04/19 02:58:34;;;;;;;10.93;7.13;;;11.80;53.60;;;;;;5032670;28;20040;-82
2022/04/19 03:01:01;;;;;;;9.80;7.30;;;12.30;52.60;;;;;;5034364;28;20041;-82
2022/04/19 03:03:29;;;;;;;10.13;7.07;;;12.70;51.70;;;;;;5032216;28;20034;-82
2022/04/19 03:05:57;;;;;;;12.10;7.70;;;13.00;50.90;;;;;;5033558;28;20045;-82
2022/04/19 03:08:24;;;;;;;9.80;6.78;;;13.10;50.40;;;;;;5028100;28;20030;-82
2022/04/19 03:10:51;;;;;;;10.63;7.05;;;12.90;50.60;;;;;;5014695;28;20071;-82
2022/04/19 03:13:16;;;;;;;10.70;7.43;;;12.70;50.80;;;;;;5029902;28;20029;-82
2022/04/19 03:15:43;;;;;;;10.90;7.07;;;12.40;51.10;;;;;;5024894;28;20435;-82
2022/04/19 03:18:08;;;;;;;9.75;6.80;;;12.40;51.50;;;;;;5015042;28;20030;-82
2022/04/19 03:20:34;;;;;;;9.68;6.60;;;12.50;51.20;;;;;;5032875;28;20022;-81
2022/04/19 03:28:29;;;;;;;11.25;7.60;;;12.60;50.50;;;;;;5014618;28;20079;-82
2022/04/19 03:30:55;;;;;;;12.98;8.02;;;12.60;50.40;;;;;;5013085;28;20025;-82
2022/04/19 03:33:20;;;;;;;11.48;8.23;;;12.50;50.40;;;;;;5014373;28;20033;-81
2022/04/19 03:35:46;;;;;;;9.75;6.72;;;12.30;50.80;;;;;;5033829;28;20380;-82
2022/04/19 03:38:12;;;;;;;10.43;7.15;;;11.60;51.80;;;;;;5032625;28;20083;-81
2022/04/19 03:40:37;;;;;;;9.65;6.72;;;11.20;52.90;;;;;;5032371;28;20033;-81
2022/04/19 03:43:05;;;;;;;9.65;6.22;;;11.00;53.30;;;;;;5033185;28;20033;-82
2022/04/19 03:45:30;;;;;;;9.85;6.45;;;11.10;53.30;;;;;;5032778;28;20045;-82
2022/04/19 03:47:56;;;;;;;10.70;6.80;;;11.20;53.20;;;;;;5031080;28;20294;-82
2022/04/19 03:50:22;;;;;;;10.43;6.50;;;11.60;52.60;;;;;;5033746;28;20032;-82
2022/04/19 03:52:50;;;;;;;10.98;6.35;;;11.80;52.30;;;;;;5032392;28;20079;-81
2022/04/19 03:55:15;;;;;;;10.13;6.82;;;12.10;52.00;;;;;;5033769;28;20032;-82
2022/04/19 03:57:41;;;;;;;8.77;6.07;;;12.40;51.10;;;;;;5031999;28;20037;-82
2022/04/19 04:00:08;;;;;;;12.05;6.72;;;12.40;50.70;;;;;;5032701;28;20075;-81
2022/04/19 04:02:34;;;;;;;10.23;7.05;;;12.20;51.40;;;;;;5032354;28;20067;-82
2022/04/19 04:04:59;;;;;;;12.73;7.90;;;12.40;51.10;;;;;;5031376;28;20057;-82
2022/04/19 04:07:27;;;;;;;12.73;7.93;;;12.30;51.20;;;;;;5031676;28;20049;-82
2022/04/19 04:09:53;;;;;;;14.40;8.98;;;12.30;51.60;;;;;;5032186;28;20029;-82
2022/04/19 04:12:18;;;;;;;14.35;8.88;;;12.40;51.10;;;;;;5031921;28;20427;-82
2022/04/19 04:14:44;;;;;;;12.95;8.18;;;12.40;51.20;;;;;;5031076;28;20025;-82
2022/04/19 04:17:11;;;;;;;13.32;8.65;;;12.30;51.10;;;;;;5033465;28;20061;-82
2022/04/19 04:19:37;;;;;;;14.00;8.75;;;12.30;51.00;;;;;;5033474;28;20029;-82
2022/04/19 04:22:03;;;;;;;10.98;7.47;;;12.30;51.20;;;;;;5015792;28;20069;-82
2022/04/19 04:24:29;;;;;;;11.93;7.65;;;12.20;51.00;;;;;;5031696;28;20456;-82
2022/04/19 04:26:55;;;;;;;12.07;7.28;;;12.10;51.20;;;;;;5032283;28;20120;-83
2022/04/19 04:29:20;;;;;;;11.23;7.68;;;12.10;51.10;;;;;;5031138;28;20439;-82
2022/04/19 04:31:46;;;;;;;11.10;7.80;;;12.20;51.40;;;;;;5032134;28;20026;-81
2022/04/19 04:34:11;;;;;;;10.65;7.50;;;12.30;51.20;;;;;;5027626;28;20033;-80
2022/04/19 04:36:37;;;;;;;10.13;7.32;;;12.30;51.30;;;;;;5031441;28;20064;-81
2022/04/19 04:39:03;;;;;;;11.25;6.75;;;12.20;51.50;;;;;;5031972;28;20025;-81
2022/04/19 04:41:29;;;;;;;10.38;6.78;;;12.10;51.50;;;;;;5031874;28;20030;-82
2022/04/19 04:43:54;;;;;;;10.43;6.90;;;11.70;52.10;;;;;;5031348;28;20041;-82
2022/04/19 04:51:48;;;;;;;15.98;7.40;;;10.90;54.80;;;;;;5032844;28;20396;-81
2022/04/19 04:54:14;;;;;;;11.13;7.78;;;10.90;55.50;;;;;;5031980;28;20476;-82
2022/04/19 04:56:40;;;;;;;11.40;7.85;;;11.10;55.10;;;;;;5031612;28;20120;-82
2022/04/19 04:59:06;;;;;;;11.88;7.63;;;11.70;54.20;;;;;;5032984;28;20032;-81
2022/04/19 05:01:31;;;;;;;10.30;7.15;;;12.10;53.20;;;;;;5032838;28;20099;-82
2022/04/19 05:03:57;;;;;;;10.73;7.38;;;12.50;52.70;;;;;;5013824;28;20034;-81
2022/04/19 05:06:23;;;;;;;10.15;7.10;;;12.80;51.90;;;;;;5011682;28;20041;-81
2022/04/19 05:08:48;;;;;;;9.95;7.28;;;12.90;51.70;;;;;;5021995;28;20025;-80
2022/04/19 05:11:15;;;;;;;10.80;7.38;;;12.90;51.80;;;;;;5011868;28;20487;-82
2022/04/19 05:13:41;;;;;;;9.73;7.22;;;13.10;51.20;;;;;;5013324;28;20022;-82
2022/04/19 05:16:06;;;;;;;12.18;7.65;;;13.50;50.90;;;;;;5024762;28;20036;-82
2022/04/19 05:18:32;;;;;;;10.40;6.82;;;13.80;50.40;;;;;;5030101;28;20032;-82
2022/04/19 05:20:58;;;;;;;9.75;6.90;;;14.00;49.20;;;;;;5027829;28;20033;-80
2022/04/19 05:23:24;;;;;;;8.68;6.60;;;13.90;49.10;;;;;;5016050;28;20038;-82
2022/04/19 05:25:49;;;;;;;10.13;6.38;;;13.90;49.20;;;;;;5011614;28;20026;-78
2022/04/19 05:28:15;;;;;;;11.85;7.47;;;13.80;49.70;;;;;;5015330;28;20080;-80
2022/04/19 05:30:41;;;;;;;8.80;6.78;;;13.40;50.30;;;;;;5015282;28;20113;-80
2022/04/19 05:33:07;;;;;;;9.82;7.15;;;13.20;51.30;;;;;;5032622;28;20485;-82
2022/04/19 05:35:33;;;;;;;10.57;7.20;;;13.10;51.70;;;;;;4668596;28;9999991;-81
2022/04/19 05:37:59;;;;;;;12.13;7.30;;;13.00;52.00;;;;;;5030778;28;20061;-82
2022/04/19 05:40:26;;;;;;;9.48;6.63;;;13.20;51.60;;;;;;5031390;28;20026;-82
2022/04/19 05:42:51;;;;;;;12.35;7.80;;;13.50;50.60;;;;;;5013217;28;20034;-80
2022/04/19 05:45:17;;;;;;;10.93;7.20;;;13.90;50.70;;;;;;5016386;28;20032;-81
2022/04/19 05:47:43;;;;;;;9.15;6.60;;;13.60;49.20;;;;;;5023556;28;20530;-80
2022/04/19 05:50:10;;;;;;;9.00;6.22;;;13.50;49.40;;;;;;5015191;28;20038;-80
2022/04/19 05:52:36;;;;;;;9.00;6.38;;;13.60;49.50;;;;;;5038579;28;20026;-80
2022/04/19 05:55:02;;;;;;;8.98;6.25;;;13.80;49.30;;;;;;5023215;28;20047;-80
2022/04/19 05:57:28;;;;;;;10.07;5.88;;;14.00;48.70;;;;;;5025630;28;20113;-80
2022/04/19 05:59:54;;;;;;;8.95;6.10;;;14.20;48.50;;;;;;5021750;28;20017;-79
2022/04/19 06:05:05;;;;;;;7.00;5.35;;;14.80;46.50;;;;;;5026990;28;20165;-79
2022/04/19 06:07:31;;;;;;;9.77;6.05;;;14.40;45.90;;;;;;5020163;28;20073;-83
2022/04/19 06:09:58;;;;;;;10.25;6.28;;;13.20;48.30;;;;;;5018261;28;20401;-83
2022/04/19 06:12:26;;;;;;;7.57;5.60;;;13.40;48.10;;;;;;5021560;28;20420;-82
2022/04/19 06:14:52;;;;;;;8.10;5.75;;;13.20;48.60;;;;;;5013461;28;20030;-84
2022/04/19 06:17:18;;;;;;;6.88;5.38;;;13.70;48.90;;;;;;5013840;28;20029;-83
2022/04/19 06:19:44;;;;;;;11.50;5.35;;;13.40;48.40;;;;;;5015123;28;20149;-82
2022/04/19 06:22:10;;;;;;;10.50;5.75;;;12.40;50.10;;;;;;5013563;28;20577;-81
2022/04/19 06:24:36;;;;;;;7.00;5.38;;;12.40;49.90;;;;;;5023488;28;20191;-82
2022/04/19 06:27:03;;;;;;;9.57;6.32;;;12.40;50.10;;;;;;4940509;28;20018;-81
2022/04/19 06:29:28;;;;;;;8.02;6.00;;;12.40;50.30;;;;;;5012306;28;20373;-81
2022/04/19 06:31:54;;;;;;;8.18;5.80;;;13.10;49.80;;;;;;5011370;28;20498;-82
2022/04/19 06:34:20;;;;;;;6.65;5.07;;;13.80;48.50;;;;;;5011722;28;20036;-81
2022/04/19 06:36:46;;;;;;;7.70;5.40;;;14.70;47.30;;;;;;5014645;28;20030;-80
2022/04/19 06:39:11;;;;;;;9.18;6.20;;;14.90;46.10;;;;;;5019053;28;20542;-82
2022/04/19 06:41:37;;;;;;;7.07;5.32;;;14.30;46.70;;;;;;5023265;28;20022;-81
2022/04/19 06:44:08;;;;;;;7.35;5.32;;;13.80;46.40;;;;;;5023571;28;20083;-79
2022/04/19 06:46:36;;;;;;;9.02;5.80;;;13.40;47.00;;;;;;5013038;28;20050;-81
2022/04/19 06:49:02;;;;;;;14.57;8.73;;;12.80;48.00;;;;;;5012708;28;20120;-80
2022/04/19 06:51:30;;;;;;;8.02;5.68;;;13.30;48.00;;;;;;5030893;28;20021;-80
2022/04/19 06:53:56;;;;;;;12.75;6.80;;;12.80;48.00;;;;;;5030839;28;20825;-81
2022/04/19 06:56:24;;;;;;;15.10;7.93;;;12.90;48.40;;;;;;5024350;28;20049;-80
2022/04/19 06:58:50;;;;;;;16.00;8.20;;;13.20;48.60;;;;;;5029053;28;20499;-82
2022/04/19 07:01:16;;;;;;;9.95;6.20;;;13.90;46.80;;;;;;5019475;28;20447;-82
2022/04/19 07:03:44;;;;;;;8.02;5.38;;;14.90;47.20;;;;;;5030809;28;20479;-81
2022/04/19 07:06:13;;;;;;;9.63;5.75;;;16.20;45.70;;;;;;5012187;28;20085;-81
2022/04/19 07:08:39;;;;;;;8.93;6.53;;;17.20;42.70;;;;;;5013772;28;20075;-81
2022/04/19 07:11:04;;;;;;;9.57;5.97;;;17.80;41.90;;;;;;5031760;28;20022;-81
2022/04/19 07:13:30;;;;;;;9.48;6.25;;;18.40;41.30;;;;;;5027738;28;20044;-81
2022/04/19 07:15:56;;;;;;;9.48;5.78;;;17.50;40.70;;;;;;5030270;28;20022;-83
2022/04/19 07:18:25;;;;;;;9.13;5.88;;;16.70;42.30;;;;;;5031532;28;20033;-81
2022/04/19 07:26:38;;;;;;;10.38;6.25;;;15.00;44.50;;;;;;5031719;28;20427;-79
2022/04/19 07:29:10;;;;;;;8.00;6.13;;;15.10;44.50;;;;;;5032951;28;20029;-79
2022/04/19 07:31:36;;;;;;;8.82;6.55;;;14.80;44.90;;;;;;5012691;28;20120;-79
2022/04/19 07:34:03;;;;;;;8.65;6.38;;;14.30;45.50;;;;;;5015201;28;20026;-80
2022/04/19 07:36:28;;;;;;;8.60;6.40;;;14.70;45.60;;;;;;5020500;28;20056;-81
2022/04/19 07:38:55;;;;;;;10.50;6.45;;;15.00;44.40;;;;;;5011161;28;20393;-82
2022/04/19 07:41:21;;;;;;;10.23;7.10;;;15.00;44.90;;;;;;5010436;28;20480;-81
2022/04/19 07:43:47;;;;;;;12.77;6.93;;;15.50;44.50;;;;;;5027519;28;20052;-80
2022/04/19 07:46:17;;;;;;;9.38;6.57;;;16.10;43.50;;;;;;5021480;28;20029;-79
2022/04/19 07:48:47;;;;;;;10.05;6.80;;;16.20;44.10;;;;;;5024879;28;20052;-81
2022/04/19 07:51:14;;;;;;;10.85;6.53;;;16.20;43.20;;;;;;5030843;28;20025;-83
2022/04/19 07:53:40;;;;;;;10.05;6.32;;;15.90;42.60;;;;;;5030830;28;20542;-78
2022/04/19 07:56:06;;;;;;;9.82;6.25;;;15.50;44.60;;;;;;5023979;28;20048;-78
2022/04/19 07:58:32;;;;;;;7.50;5.70;;;15.30;43.90;;;;;;5019036;28;20033;-78
2022/04/19 08:00:57;;;;;;;9.05;6.13;;;15.20;44.10;;;;;;5018294;28;20033;-77
2022/04/19 08:03:23;;;;;;;8.75;5.50;;;15.10;44.30;;;;;;5025484;28;20060;-80
2022/04/19 08:05:50;;;;;;;12.43;5.80;;;15.00;44.00;;;;;;5024868;28;20041;-77
2022/04/19 08:08:17;;;;;;;9.65;5.63;;;14.70;44.80;;;;;;5026463;28;20033;-76
2022/04/19 08:10:44;;;;;;;9.00;5.40;;;15.70;43.40;;;;;;5017144;28;20022;-76
2022/04/19 08:13:10;;;;;;;8.60;5.70;;;15.40;42.80;;;;;;5022039;28;20698;-79
2022/04/19 08:15:36;;;;;;;7.97;5.22;;;15.30;44.10;;;;;;5027216;28;20108;-80
2022/04/19 08:18:01;;;;;;;10.20;6.10;;;15.90;42.90;;;;;;5024940;28;20530;-81
2022/04/19 08:20:27;;;;;;;7.93;5.93;;;16.80;42.50;;;;;;5025865;28;20113;-79
2022/04/19 08:22:53;;;;;;;7.88;5.80;;;16.90;40.80;;;;;;5019607;28;20065;-79
2022/04/19 08:25:19;;;;;;;9.13;6.40;;;15.70;42.30;;;;;;5025186;28;20460;-78
2022/04/19 08:27:48;;;;;;;10.20;6.35;;;15.30;43.40;;;;;;5021017;28;20427;-81
2022/04/19 08:30:15;;;;;;;8.57;6.05;;;15.70;43.80;;;;;;5024454;28;20392;-79
2022/04/19 08:32:42;;;;;;;12.27;7.13;;;16.00;42.00;;;;;;5029034;28;20135;-81
2022/04/19 08:35:09;;;;;;;10.43;6.43;;;16.10;43.80;;;;;;5031578;28;20029;-82
2022/04/19 08:37:35;;;;;;;9.82;7.22;;;17.00;41.70;;;;;;5024805;28;20029;-82
2022/04/19 08:40:07;;;;;;;8.25;6.32;;;17.80;41.70;;;;;;5024349;28;20021;-80
2022/04/19 08:42:34;;;;;;;10.18;6.40;;;18.10;40.20;;;;;;5020345;28;20032;-83
2022/04/19 08:45:03;;;;;;;12.27;6.78;;;17.20;41.50;;;;;;5032043;28;20026;-82
2022/04/19 08:47:35;;;;;;;9.15;5.90;;;17.40;41.70;;;;;;5032996;28;20026;-82
2022/04/19 08:50:04;;;;;;;9.88;6.60;;;17.60;41.40;;;;;;5032006;28;20063;-84
2022/04/19 08:52:31;;;;;;;8.65;6.63;;;18.30;42.90;;;;;;5033227;28;20055;-86
2022/04/19 08:57:41;;;;;;;7.45;5.80;;;18.50;40.80;;;;;;5033236;28;20032;-81
2022/04/19 09:00:08;;;;;;;12.02;6.00;;;17.60;40.90;;;;;;5031540;28;20022;-81
2022/04/19 09:02:37;;;;;;;9.73;6.07;;;17.60;41.50;;;;;;5033237;28;20033;-83
2022/04/19 09:05:17;;;;;;;8.18;5.85;;;17.20;41.10;;;;;;5035731;28;20025;-82
2022/04/19 09:07:44;;;;;;;9.77;6.03;;;17.90;41.20;;;;;;5056547;28;20519;-83
2022/04/19 09:10:14;;;;;;;9.32;6.43;;;18.80;41.80;;;;;;5056798;28;20040;-83
2022/04/19 09:12:56;;;;;;;7.85;6.03;;;19.70;39.60;;;;;;5038870;28;20029;-83
2022/04/19 09:15:21;;;;;;;8.10;5.95;;;20.40;38.90;;;;;;5038983;28;20017;-85
2022/04/19 09:17:48;;;;;;;8.32;5.68;;;20.50;37.50;;;;;;5056132;28;20036;-81
2022/04/19 09:20:19;;;;;;;10.98;6.90;;;19.00;38.50;;;;;;5038579;28;20117;-82
2022/04/19 09:22:59;;;;;;;9.57;6.22;;;17.60;39.90;;;;;;4331511;28;10000922;-81
2022/04/19 09:25:25;;;;;;;9.75;7.07;;;16.70;40.60;;;;;;5035718;28;20029;-85
2022/04/19 09:27:53;;;;;;;8.23;5.50;;;16.10;41.50;;;;;;5036465;28;20026;-82
2022/04/19 09:30:28;;;;;;;11.27;7.32;;;15.60;42.30;;;;;;5018614;28;20025;-82
2022/04/19 09:33:06;;;;;;;8.70;6.45;;;15.80;42.60;;;;;;5036381;28;20075;-81
2022/04/19 09:35:34;;;;;;;7.30;5.40;;;16.30;42.00;;;;;;5018416;28;20063;-80
2022/04/19 09:37:59;;;;;;;8.73;5.63;;;16.20;42.00;;;;;;5018645;28;20026;-81
2022/04/19 09:40:32;;;;;;;10.95;6.45;;;15.50;41.60;;;;;;5018319;28;20036;-83
2022/04/19 09:43:16;;;;;;;9.20;5.45;;;15.40;43.50;;;;;;5018480;28;20396;-81
2022/04/19 09:45:56;;;;;;;8.18;5.57;;;16.10;42.20;;;;;;5018452;28;20057;-83
2022/04/19 09:48:28;;;;;;;7.68;5.57;;;16.00;42.30;;;;;;5018337;28;20116;-81
2022/04/19 09:50:57;;;;;;;9.07;5.70;;;16.40;42.20;;;;;;5035816;28;20033;-81
2022/04/19 09:53:26;;;;;;;9.23;5.35;;;17.30;42.80;;;;;;5035595;28;20026;-86
2022/04/19 09:55:54;;;;;;;7.07;5.15;;;17.70;42.10;;;;;;5035681;28;20097;-85
2022/04/19 09:58:21;;;;;;;8.00;5.90;;;18.40;41.90;;;;;;5035495;28;20060;-82
2022/04/19 10:00:48;;;;;;;7.35;5.80;;;19.30;40.50;;;;;;5035697;28;20021;-85
2022/04/19 10:08:45;;;;;;;8.52;5.30;;;19.70;40.60;;;;;;5035849;28;20048;-81
2022/04/19 10:11:12;;;;;;;7.03;5.07;;;20.10;39.80;;;;;;5018178;28;20030;-81
2022/04/19 10:13:39;;;;;;;6.97;5.20;;;19.30;39.10;;;;;;5034936;28;20068;-81
2022/04/19 10:16:12;;;;;;;7.95;4.78;;;17.50;38.40;;;;;;5035346;28;20407;-81
2022/04/19 10:18:39;;;;;;;7.45;5.40;;;16.60;40.90;;;;;;5018097;28;20475;-80
2022/04/19 10:21:09;;;;;;;10.02;6.82;;;15.60;42.80;;;;;;5025851;28;20467;-79
2022/04/19 10:23:40;;;;;;;6.50;5.20;;;15.80;42.90;;;;;;5053659;28;20068;-79
2022/04/19 10:26:18;;;;;;;7.75;5.40;;;15.40;41.70;;;;;;5036477;28;20037;-80
2022/04/19 10:28:45;;;;;;;6.75;5.30;;;15.50;42.60;;;;;;5025764;28;20025;-80
2022/04/19 10:31:12;;;;;;;9.68;5.38;;;15.60;42.90;;;;;;5035032;28;20379;-81
2022/04/19 10:33:45;;;;;;;7.68;5.63;;;15.60;44.20;;;;;;5034980;28;20064;-81
2022/04/19 10:36:15;;;;;;;7.95;5.50;;;15.20;44.10;;;;;;5017396;28;20065;-82
2022/04/19 10:38:43;;;;;;;7.32;5.63;;;15.90;43.10;;;;;;5035201;28;20021;-82
2022/04/19 10:41:08;;;;;;;7.60;5.72;;;16.80;43.40;;;;;;5034961;28;20039;-80
2022/04/19 10:43:35;;;;;;;7.82;5.43;;;17.80;42.10;;;;;;5034398;28;20041;-81
2022/04/19 10:46:19;;;;;;;7.97;6.22;;;17.90;41.00;;;;;;5035160;28;20025;-81
2022/04/19 10:49:21;;;;;;;8.45;5.97;;;18.50;41.10;;;;;;5034688;28;20484;-80
2022/04/19 10:51:47;;;;;;;8.23;5.97;;;18.90;41.10;;;;;;5017098;28;20028;-84
2022/04/19 10:54:16;;;;;;;7.93;6.07;;;18.90;41.10;;;;;;5017407;28;20021;-83
2022/04/19 10:59:59;;;;;;;7.15;5.40;;;18.20;40.50;;;;;;5034866;28;20072;-82
2022/04/19 11:02:37;;;;;;;10.48;6.40;;;17.00;41.40;;;;;;5016710;28;20030;-81
2022/04/19 11:05:04;;;;;;;11.43;6.75;;;16.70;42.80;;;;;;5016874;28;20040;-81
2022/04/19 11:07:42;;;;;;;8.00;5.80;;;17.00;43.30;;;;;;5012873;28;20053;-83
2022/04/19 11:10:08;;;;;;;7.63;5.40;;;17.50;41.70;;;;;;4976242;28;20394;-80
2022/04/19 11:12:56;;;;;;;7.20;5.72;;;18.10;42.10;;;;;;5013405;28;20022;-83
2022/04/19 11:15:37;;;;;;;10.60;5.72;;;18.70;42.10;;;;;;5014470;28;20018;-81
2022/04/19 11:18:41;;;;;;;8.38;6.15;;;18.90;42.50;;;;;;5014314;28;20420;-83
2022/04/19 11:21:15;;;;;;;8.55;6.85;;;19.20;43.80;;;;;;4973266;28;20054;-86
2022/04/19 11:23:42;;;;;;;8.05;6.60;;;19.00;43.50;;;;;;4956808;28;20043;-80
2022/04/19 11:26:30;;;;;;;63.60;40.05;;;18.70;43.40;;;;;;4957045;28;20530;-82
2022/04/19 11:29:11;;;;;;;69.05;44.65;;;18.40;45.00;;;;;;4957237;28;20434;-80
2022/04/19 11:31:56;;;;;;;62.38;43.50;;;17.70;46.00;;;;;;4957324;28;20047;-82
2022/04/19 11:34:23;;;;;;;14.40;12.00;;;17.40;46.60;;;;;;4957023;28;20437;-81
2022/04/19 11:36:49;;;;;;;9.27;7.32;;;17.10;48.70;;;;;;4957351;28;20062;-82
2022/04/19 11:47:51;;;;;;;11.07;7.88;;;16.40;48.60;;;;;;4973624;28;20581;-81
2022/04/19 11:50:33;;;;;;;9.32;7.38;;;16.40;49.80;;;;;;4956730;28;20031;-80
2022/04/19 11:52:59;;;;;;;11.45;8.13;;;16.50;49.30;;;;;;4956597;28;20031;-81
2022/04/19 11:55:27;;;;;;;13.27;9.65;;;16.80;48.70;;;;;;4992927;28;20033;-81
2022/04/19 11:58:07;;;;;;;13.70;10.60;;;16.80;49.20;;;;;;5012948;28;20029;-82
2022/04/19 12:00:33;;;;;;;11.05;9.05;;;17.00;49.30;;;;;;5014089;28;20022;-81
2022/04/19 12:03:03;;;;;;;14.05;10.15;;;17.20;50.10;;;;;;5012474;28;20052;-81
2022/04/19 12:05:30;;;;;;;13.47;8.80;;;17.20;48.90;;;;;;5014413;28;20029;-81
2022/04/19 12:07:56;;;;;;;9.98;7.93;;;17.20;48.40;;;;;;5015428;28;20772;-81
2022/04/19 12:10:23;;;;;;;11.35;7.88;;;17.30;49.00;;;;;;5033672;28;20044;-80
2022/04/19 12:12:50;;;;;;;11.57;8.38;;;17.40;48.40;;;;;;5015641;28;20026;-81
2022/04/19 12:15:41;;;;;;;9.95;7.40;;;17.10;51.00;;;;;;5015874;28;20528;-81
2022/04/19 12:18:07;;;;;;;;;;;17.50;48.50;;;;;;5012153;28;20022;-81
2022/04/19 12:20:43;;;;;;;16.25;10.23;;;17.60;47.30;;;;;;5033571;28;19992;-81
2022/04/19 12:23:19;;;;;;;17.95;12.27;;;18.20;48.40;;;;;;5015978;28;20037;-82
2022/04/19 12:26:00;;;;;;;14.90;10.07;;;18.60;47.00;;;;;;5015674;28;20120;-82
2022/04/19 12:28:44;;;;;;;11.52;8.18;;;18.90;47.30;;;;;;5016005;28;20076;-82
2022/04/19 12:31:32;;;;;;;8.00;6.85;;;19.10;46.80;;;;;;5015761;28;20022;-81
2022/04/19 12:33:59;;;;;;;9.48;7.72;;;19.10;46.60;;;;;;5033492;28;20052;-83
2022/04/19 12:36:28;;;;;;;9.48;7.60;;;19.40;47.60;;;;;;5018513;28;20028;-81
2022/04/19 12:39:01;;;;;;;9.18;7.10;;;19.00;46.70;;;;;;5037288;28;20491;-82
2022/04/19 12:41:34;;;;;;;7.47;6.15;;;18.80;45.50;;;;;;5036969;28;20219;-81
2022/04/19 12:44:04;;;;;;;8.13;6.07;;;19.00;45.70;;;;;;5037216;28;20041;-82
2022/04/19 12:46:30;;;;;;;7.57;6.35;;;18.90;45.10;;;;;;5019294;28;20029;-82
2022/04/19 12:48:57;;;;;;;9.35;6.05;;;18.90;45.40;;;;;;5019092;28;20124;-80
2022/04/19 12:51:24;;;;;;;7.82;6.30;;;18.20;44.30;;;;;;5019168;28;20134;-81
2022/04/19 12:54:08;;;;;;;7.85;6.22;;;16.50;47.90;;;;;;5018814;28;20099;-81
2022/04/19 12:56:34;;;;;;;8.02;6.13;;;15.90;49.00;;;;;;5019438;28;20120;-81
2022/04/19 12:59:00;;;;;;;9.35;6.50;;;15.90;49.50;;;;;;5019311;28;20072;-79
2022/04/19 13:01:26;;;;;;;6.85;5.68;;;16.40;50.30;;;;;;5019128;28;20029;-83
2022/04/19 13:03:52;;;;;;;7.18;6.22;;;15.80;50.20;;;;;;5036814;28;20048;-79
2022/04/19 13:14:31;;;;;;;8.77;6.75;;;14.60;52.20;;;;;;5036807;28;20110;-86
2022/04/19 13:16:57;;;;;;;8.88;6.47;;;13.80;53.50;;;;;;5036635;28;20441;-81
2022/04/19 13:19:23;;;;;;;7.90;6.45;;;13.40;55.40;;;;;;5018737;28;20785;-81
2022/04/19 13:21:48;;;;;;;7.95;6.72;;;12.80;56.70;;;;;;5018715;28;20029;-83
2022/04/19 13:24:14;;;;;;;9.02;7.20;;;12.40;57.50;;;;;;5035826;28;20083;-82
2022/04/19 13:26:40;;;;;;;12.27;8.32;;;12.40;60.30;;;;;;5037983;28;20021;-81
2022/04/19 13:29:06;;;;;;;8.98;6.90;;;12.50;61.40;;;;;;5018021;28;20419;-83
2022/04/19 13:31:31;;;;;;;11.45;7.68;;;12.40;59.60;;;;;;5018314;28;20024;-81
2022/04/19 13:33:57;;;;;;;11.45;8.73;;;12.10;63.90;;;;;;5018250;28;20044;-83
2022/04/19 13:36:24;;;;;;;12.18;8.73;;;12.50;64.70;;;;;;5018325;28;20017;-81